Time;durP1;ratioP1;P1;durP2;ratioP2;P2;SDS_P1;SDS_P2;PMS_P1;PMS_P2;Temp;Humidity;BMP_temperature;BMP_pressure;BME280_temperature;BME280_humidity;BME280_pressure;Samples;Min_cycle;Max_cycle;Signal;HPM_P1;HPM_P2
2023/03/13 00:01:18;;;;;;;;;;;9.20;91.90;;;;;;5094213;27;19928;-78
2023/03/13 00:03:46;;;;;;;;;;;9.20;91.90;;;;;;5103043;27;19939;-78
2023/03/13 00:06:12;;;;;;;;;;;9.20;91.90;;;;;;5101415;28;19932;-77
2023/03/13 00:08:39;;;;;;;;;;;9.20;91.80;;;;;;5100887;27;19931;-76
2023/03/13 00:11:06;;;;;;;;;;;9.20;91.80;;;;;;5107800;27;19927;-78
2023/03/13 00:13:33;;;;;;;;;;;9.20;91.80;;;;;;5100986;27;19986;-77
2023/03/13 00:16:00;;;;;;;;;;;9.20;91.80;;;;;;5102929;27;20375;-78
2023/03/13 00:18:27;;;;;;;;;;;9.20;91.80;;;;;;5094478;28;19942;-77
2023/03/13 00:20:59;;;;;;;;;;;9.30;91.80;;;;;;5100585;28;20468;-79
2023/03/13 00:23:25;;;;;;;;;;;9.20;91.80;;;;;;5101892;27;20455;-77
2023/03/13 00:25:55;;;;;;;;;;;9.30;91.80;;;;;;5097886;27;19939;-77
2023/03/13 00:28:22;;;;;;;;;;;9.30;91.80;;;;;;5098949;27;19928;-78
2023/03/13 00:30:48;;;;;;;;;;;9.30;91.70;;;;;;5095581;27;19939;-77
2023/03/13 00:33:15;;;;;;;;;;;9.30;91.70;;;;;;5103445;27;19927;-78
2023/03/13 00:35:41;;;;;;;;;;;9.30;91.70;;;;;;5100906;27;19985;-79
2023/03/13 00:38:09;;;;;;;;;;;9.30;91.70;;;;;;5097420;28;19928;-77
2023/03/13 00:40:37;;;;;;;;;;;9.30;91.70;;;;;;5100994;28;20004;-78
2023/03/13 00:43:03;;;;;;;;;;;9.30;91.70;;;;;;5103269;28;19935;-78
2023/03/13 00:45:30;;;;;;;;;;;9.30;91.70;;;;;;5093806;27;19927;-77
2023/03/13 00:47:56;;;;;;;;;;;9.30;91.70;;;;;;5102576;28;19927;-77
2023/03/13 00:50:23;;;;;;;;;;;9.30;91.60;;;;;;5103620;28;19936;-77
2023/03/13 00:52:49;;;;;;;;;;;9.30;91.60;;;;;;5103740;28;19938;-78
2023/03/13 00:55:17;;;;;;;;;;;9.30;91.60;;;;;;5094466;28;19939;-77
2023/03/13 00:57:44;;;;;;;;;;;9.30;91.50;;;;;;5101837;28;19935;-77
2023/03/13 01:00:11;;;;;;;;;;;9.30;91.60;;;;;;5097246;28;20327;-77
2023/03/13 01:02:41;;;;;;;;;;;9.30;91.50;;;;;;5091690;28;20412;-77
2023/03/13 01:05:08;;;;;;;;;;;9.30;91.50;;;;;;5100564;28;19932;-77
2023/03/13 01:07:34;;;;;;;;;;;9.30;91.50;;;;;;5099608;28;19965;-78
2023/03/13 01:10:01;;;;;;;;;;;9.30;91.50;;;;;;5100658;28;19927;-78
2023/03/13 01:12:29;;;;;;;;;;;9.30;91.50;;;;;;5092411;28;19931;-78
2023/03/13 01:14:55;;;;;;;;;;;9.30;91.50;;;;;;5099502;28;19977;-77
2023/03/13 01:17:22;;;;;;;;;;;9.40;91.50;;;;;;5089713;27;19924;-77
2023/03/13 01:19:48;;;;;;;;;;;9.40;91.40;;;;;;5100277;28;19962;-77
2023/03/13 01:22:15;;;;;;;;;;;9.40;91.30;;;;;;5101439;28;19932;-78
2023/03/13 01:24:42;;;;;;;;;;;9.40;91.30;;;;;;5099629;28;19935;-78
2023/03/13 01:27:08;;;;;;;;;;;9.40;91.30;;;;;;5097547;28;19957;-78
2023/03/13 01:29:36;;;;;;;;;;;9.40;91.30;;;;;;5102105;28;20004;-77
2023/03/13 01:32:02;;;;;;;;;;;9.40;91.30;;;;;;5095215;27;19935;-78
2023/03/13 01:34:29;;;;;;;;;;;9.40;91.30;;;;;;5102013;28;19935;-78
2023/03/13 01:36:55;;;;;;;;;;;9.40;91.30;;;;;;5097477;28;19932;-78
2023/03/13 01:39:22;;;;;;;;;;;9.40;91.30;;;;;;5097543;28;20343;-78
2023/03/13 01:41:48;;;;;;;;;;;9.40;91.20;;;;;;5101177;28;19927;-78
2023/03/13 01:44:20;;;;;;;;;;;9.40;91.20;;;;;;5099031;27;19981;-78
2023/03/13 01:46:48;;;;;;;;;;;9.40;91.20;;;;;;5098221;28;19985;-79
2023/03/13 01:49:17;;;;;;;;;;;9.50;91.20;;;;;;5103207;27;19928;-78
2023/03/13 01:51:45;;;;;;;;;;;9.50;91.20;;;;;;5103477;27;20326;-77
2023/03/13 01:54:18;;;;;;;;;;;9.50;91.20;;;;;;5096691;27;19928;-78
2023/03/13 01:56:48;;;;;;;;;;;9.50;91.20;;;;;;5098588;27;20316;-78
2023/03/13 01:59:16;;;;;;;;;;;9.50;91.20;;;;;;5098471;28;19935;-78
2023/03/13 02:01:44;;;;;;;;;;;9.50;91.30;;;;;;5095776;27;19927;-78
2023/03/13 02:04:12;;;;;;;;;;;9.50;91.20;;;;;;5102014;28;20629;-76
2023/03/13 02:06:43;;;;;;;;;;;9.50;91.20;;;;;;5103377;28;21343;-78
2023/03/13 02:09:11;;;;;;;;;;;9.50;91.20;;;;;;5099861;28;19928;-78
2023/03/13 02:11:43;;;;;;;;;;;9.50;91.30;;;;;;5099410;27;19973;-78
2023/03/13 02:14:10;;;;;;;;;;;9.60;91.30;;;;;;5102082;28;19928;-78
2023/03/13 02:16:37;;;;;;;;;;;9.60;91.40;;;;;;5097141;27;19928;-77
2023/03/13 02:19:07;;;;;;;;;;;9.60;91.50;;;;;;5098125;28;19927;-76
2023/03/13 02:21:39;;;;;;;;;;;9.50;91.50;;;;;;5101811;27;19932;-78
2023/03/13 02:24:09;;;;;;;;;;;9.60;91.60;;;;;;5099939;27;19928;-78
2023/03/13 02:26:37;;;;;;;;;;;9.60;91.80;;;;;;5102138;28;19932;-78
2023/03/13 02:29:04;;;;;;;;;;;9.60;91.90;;;;;;5094951;27;19932;-78
2023/03/13 02:31:30;;;;;;;;;;;9.60;92.00;;;;;;5100593;27;19946;-77
2023/03/13 02:33:59;;;;;;;;;;;9.60;92.10;;;;;;5100342;27;19932;-78
2023/03/13 02:36:26;;;;;;;;;;;9.60;92.10;;;;;;5096610;28;19928;-79
2023/03/13 02:38:55;;;;;;;;;;;9.60;92.30;;;;;;5097100;27;20421;-78
2023/03/13 02:41:22;;;;;;;;;;;9.60;92.50;;;;;;5100630;27;19938;-79
2023/03/13 02:43:50;;;;;;;;;;;9.60;92.70;;;;;;5098563;27;19947;-79
2023/03/13 02:46:18;;;;;;;;;;;9.60;92.80;;;;;;5101501;27;19928;-78
2023/03/13 02:48:45;;;;;;;;;;;9.70;92.90;;;;;;5099315;28;20602;-78
2023/03/13 02:51:15;;;;;;;;;;;9.60;93.00;;;;;;5100007;27;20004;-78
2023/03/13 02:53:43;;;;;;;;;;;9.70;93.10;;;;;;5094695;27;19985;-77
2023/03/13 02:56:10;;;;;;;;;;;9.70;93.80;;;;;;5099800;27;19934;-78
2023/03/13 02:58:41;;;;;;;;;;;9.70;93.40;;;;;;5102835;27;19989;-77
2023/03/13 03:01:09;;;;;;;;;;;9.60;93.40;;;;;;5093875;27;20002;-78
2023/03/13 03:03:35;;;;;;;;;;;9.70;93.50;;;;;;5104430;27;19928;-77
2023/03/13 03:06:02;;;;;;;;;;;9.70;93.50;;;;;;5094342;28;20016;-77
2023/03/13 03:08:29;;;;;;;;;;;9.70;93.50;;;;;;5101822;27;19954;-79
2023/03/13 03:10:56;;;;;;;;;;;9.70;93.50;;;;;;5095706;28;19939;-77
2023/03/13 03:13:22;;;;;;;;;;;9.70;93.70;;;;;;5100388;27;19932;-78
2023/03/13 03:15:49;;;;;;;;;;;9.70;93.80;;;;;;5094104;27;19947;-78
2023/03/13 03:18:17;;;;;;;;;;;9.70;93.80;;;;;;5100496;27;20381;-78
2023/03/13 03:20:43;;;;;;;;;;;9.70;93.80;;;;;;5103787;28;19961;-78
2023/03/13 03:23:10;;;;;;;;;;;9.70;93.80;;;;;;5099742;27;20331;-78
2023/03/13 03:25:36;;;;;;;;;;;9.70;93.90;;;;;;5101502;27;19980;-78
2023/03/13 03:28:03;;;;;;;;;;;9.70;94.00;;;;;;5103959;28;19928;-79
2023/03/13 03:30:29;;;;;;;;;;;9.70;94.10;;;;;;5103000;27;19927;-78
2023/03/13 03:32:56;;;;;;;;;;;9.70;94.10;;;;;;5097334;28;19928;-78
2023/03/13 03:35:24;;;;;;;;;;;9.80;94.10;;;;;;5098853;28;19931;-78
2023/03/13 03:37:50;;;;;;;;;;;9.80;94.10;;;;;;5104581;28;19957;-77
2023/03/13 03:40:19;;;;;;;;;;;9.80;94.10;;;;;;5098921;28;20284;-78
2023/03/13 03:42:45;;;;;;;;;;;9.80;94.20;;;;;;5104659;28;20397;-78
2023/03/13 03:45:12;;;;;;;;;;;9.80;94.30;;;;;;5101128;27;19927;-79
2023/03/13 03:47:38;;;;;;;;;;;9.80;94.30;;;;;;5097284;27;19927;-78
2023/03/13 03:50:06;;;;;;;;;;;9.80;94.40;;;;;;5104183;27;19934;-78
2023/03/13 03:52:34;;;;;;;;;;;9.80;94.50;;;;;;5100187;27;19953;-78
2023/03/13 03:55:00;;;;;;;;;;;9.80;94.70;;;;;;5098917;28;20453;-78
2023/03/13 03:57:27;;;;;;;;;;;9.80;94.90;;;;;;5096474;27;19981;-78
2023/03/13 03:59:54;;;;;;;;;;;9.80;94.80;;;;;;5098849;27;20683;-77
2023/03/13 04:02:20;;;;;;;;;;;9.90;94.90;;;;;;5095435;27;19928;-78
2023/03/13 04:04:47;;;;;;;;;;;9.90;95.10;;;;;;5098305;27;19927;-78
2023/03/13 04:07:13;;;;;;;;;;;9.90;95.20;;;;;;5098017;27;21003;-78
2023/03/13 04:09:41;;;;;;;;;;;9.90;95.30;;;;;;5091822;28;19995;-78
2023/03/13 04:12:08;;;;;;;;;;;9.90;95.50;;;;;;5096335;27;19973;-77
2023/03/13 04:14:35;;;;;;;;;;;9.90;95.60;;;;;;5091209;28;19935;-79
2023/03/13 04:17:01;;;;;;;;;;;10.00;95.70;;;;;;5098152;27;20527;-79
2023/03/13 04:19:28;;;;;;;;;;;9.90;95.70;;;;;;5100945;28;19927;-78
2023/03/13 04:21:54;;;;;;;;;;;10.00;95.80;;;;;;5099370;28;19932;-77
2023/03/13 04:24:21;;;;;;;;;;;10.00;95.80;;;;;;5096943;28;20349;-78
2023/03/13 04:26:49;;;;;;;;;;;10.00;95.80;;;;;;5092849;27;19934;-78
2023/03/13 04:29:15;;;;;;;;;;;10.00;95.80;;;;;;5092532;27;19981;-78
2023/03/13 04:31:42;;;;;;;;;;;10.00;95.80;;;;;;5090298;27;19932;-78
2023/03/13 04:34:08;;;;;;;;;;;10.00;95.80;;;;;;5096977;28;20527;-79
2023/03/13 04:36:35;;;;;;;;;;;10.00;95.70;;;;;;5088621;28;19935;-78
2023/03/13 04:39:02;;;;;;;;;;;10.00;95.70;;;;;;5089019;28;19935;-78
2023/03/13 04:41:28;;;;;;;;;;;10.00;95.80;;;;;;5086476;28;19998;-78
2023/03/13 04:43:56;;;;;;;;;;;10.10;95.90;;;;;;5090065;27;19935;-78
2023/03/13 04:46:22;;;;;;;;;;;10.10;95.90;;;;;;5091083;27;19928;-79
2023/03/13 04:48:49;;;;;;;;;;;10.10;95.90;;;;;;5099818;28;20350;-78
2023/03/13 04:51:16;;;;;;;;;;;10.10;95.90;;;;;;5090413;28;20602;-78
2023/03/13 04:53:42;;;;;;;;;;;10.10;95.80;;;;;;5089079;28;20080;-77
2023/03/13 04:56:09;;;;;;;;;;;10.10;95.80;;;;;;5097947;27;19927;-78
2023/03/13 04:58:35;;;;;;;;;;;10.10;95.80;;;;;;5096539;28;19956;-77
2023/03/13 05:01:03;;;;;;;;;;;10.10;95.90;;;;;;5093563;28;20294;-77
2023/03/13 05:03:30;;;;;;;;;;;10.10;95.90;;;;;;5088486;28;19928;-78
2023/03/13 05:05:56;;;;;;;;;;;10.10;95.90;;;;;;5092417;28;19924;-78
2023/03/13 05:08:23;;;;;;;;;;;10.10;96.00;;;;;;5092085;28;19928;-78
2023/03/13 05:10:49;;;;;;;;;;;10.10;95.90;;;;;;5092941;28;19936;-78
2023/03/13 05:13:16;;;;;;;;;;;10.10;95.80;;;;;;5093492;28;19973;-77
2023/03/13 05:15:42;;;;;;;;;;;10.10;95.90;;;;;;5095059;28;19928;-78
2023/03/13 05:18:11;;;;;;;;;;;10.10;95.90;;;;;;5097852;28;19930;-77
2023/03/13 05:20:38;;;;;;;;;;;10.20;96.00;;;;;;5101619;28;20619;-77
2023/03/13 05:23:04;;;;;;;;;;;10.20;96.10;;;;;;5102424;28;20439;-78
2023/03/13 05:25:31;;;;;;;;;;;10.20;96.20;;;;;;5098603;28;19935;-77
2023/03/13 05:27:57;;;;;;;;;;;10.20;96.10;;;;;;5094884;27;19988;-77
2023/03/13 05:30:24;;;;;;;;;;;10.20;96.10;;;;;;5098844;27;19923;-74
2023/03/13 05:32:50;;;;;;;;;;;10.20;96.30;;;;;;5099759;27;19927;-78
2023/03/13 05:35:18;;;;;;;;;;;10.20;96.30;;;;;;5104440;28;20205;-78
2023/03/13 05:37:45;;;;;;;;;;;10.20;96.30;;;;;;5101168;28;19996;-78
2023/03/13 05:40:12;;;;;;;;;;;10.30;96.40;;;;;;5106298;27;20015;-77
2023/03/13 05:42:39;;;;;;;;;;;10.30;96.50;;;;;;5100815;28;19936;-78
2023/03/13 05:45:07;;;;;;;;;;;10.30;96.50;;;;;;5099508;27;19969;-76
2023/03/13 05:47:34;;;;;;;;;;;10.30;96.60;;;;;;5098954;28;19935;-76
2023/03/13 05:50:00;;;;;;;;;;;10.30;96.70;;;;;;5093312;27;19924;-78
2023/03/13 05:52:28;;;;;;;;;;;10.30;96.80;;;;;;5098293;28;19984;-78
2023/03/13 05:54:55;;;;;;;;;;;10.30;96.90;;;;;;5103435;27;19982;-75
2023/03/13 05:57:21;;;;;;;;;;;10.30;96.90;;;;;;5101690;27;20472;-75
2023/03/13 05:59:48;;;;;;;;;;;10.80;98.50;;;;;;5102262;28;19927;-75
2023/03/13 06:02:15;;;;;;;;;;;10.90;97.70;;;;;;5100496;27;19939;-74
2023/03/13 06:04:41;;;;;;;;;;;10.90;97.20;;;;;;5103024;28;19981;-76
2023/03/13 06:07:08;;;;;;;;;;;10.90;97.00;;;;;;5101959;28;19927;-75
2023/03/13 06:09:36;;;;;;;;;;;10.80;96.80;;;;;;5102286;27;19928;-75
2023/03/13 06:12:02;;;;;;;;;;;10.80;96.80;;;;;;5099786;28;19935;-75
2023/03/13 06:14:29;;;;;;;;;;;10.70;96.90;;;;;;5098526;28;19932;-75
2023/03/13 06:16:55;;;;;;;;;;;10.60;97.00;;;;;;5098995;27;19927;-74
2023/03/13 06:19:23;;;;;;;;;;;10.60;97.10;;;;;;5100525;27;19949;-75
2023/03/13 06:21:50;;;;;;;;;;;10.60;97.20;;;;;;5097784;28;20014;-74
2023/03/13 06:24:16;;;;;;;;;;;10.60;97.30;;;;;;5102275;27;20009;-75
2023/03/13 06:26:44;;;;;;;;;;;10.60;97.50;;;;;;5100383;27;20365;-74
2023/03/13 06:29:11;;;;;;;;;;;10.60;97.50;;;;;;5098776;27;19928;-75
2023/03/13 06:31:37;;;;;;;;;;;10.50;97.60;;;;;;5094771;27;20384;-75
2023/03/13 06:34:04;;;;;;;;;;;10.60;97.70;;;;;;5100130;27;19939;-74
2023/03/13 06:36:30;;;;;;;;;;;10.60;97.80;;;;;;5093978;27;19982;-74
2023/03/13 06:38:57;;;;;;;;;;;10.60;97.80;;;;;;5102383;27;19936;-74
2023/03/13 06:41:24;;;;;;;;;;;10.60;97.90;;;;;;5096519;28;19936;-74
2023/03/13 06:43:52;;;;;;;;;;;10.60;97.90;;;;;;5097557;27;20040;-75
2023/03/13 06:46:19;;;;;;;;;;;10.60;97.90;;;;;;5097532;27;19928;-71
2023/03/13 06:48:46;;;;;;;;;;;10.60;98.10;;;;;;5098235;27;19928;-74
2023/03/13 06:51:12;;;;;;;;;;;10.60;98.10;;;;;;5100223;27;20015;-74
2023/03/13 06:53:39;;;;;;;;;;;10.60;98.10;;;;;;5096260;27;19928;-74
2023/03/13 06:56:06;;;;;;;;;;;10.60;98.20;;;;;;5104108;28;19931;-73
2023/03/13 06:58:32;;;;;;;;;;;10.60;98.30;;;;;;5095572;28;19940;-75
2023/03/13 07:01:05;;;;;;;;;;;10.60;98.30;;;;;;5094821;28;19935;-74
2023/03/13 07:03:32;;;;;;;;;;;10.60;98.30;;;;;;5084450;28;19932;-73
2023/03/13 07:05:59;;;;;;;;;;;10.60;98.30;;;;;;5083277;28;20386;-74
2023/03/13 07:08:26;;;;;;;;;;;10.60;98.40;;;;;;5082644;28;19936;-74
2023/03/13 07:10:53;;;;;;;;;;;10.60;98.40;;;;;;5071898;28;19936;-75
2023/03/13 07:13:21;;;;;;;;;;;10.60;98.50;;;;;;5082440;28;19928;-73
2023/03/13 07:15:48;;;;;;;;;;;10.60;98.60;;;;;;5080259;28;19924;-75
2023/03/13 07:18:16;;;;;;;;;;;10.60;98.60;;;;;;5092585;27;20022;-74
2023/03/13 07:20:42;;;;;;;;;;;10.70;98.70;;;;;;5097192;27;19949;-74
2023/03/13 07:23:09;;;;;;;;;;;10.70;98.70;;;;;;5094116;27;20549;-73
2023/03/13 07:25:35;;;;;;;;;;;10.70;98.80;;;;;;5104228;27;19934;-74
2023/03/13 07:28:02;;;;;;;;;;;10.70;98.80;;;;;;5102496;27;19931;-74
2023/03/13 07:30:28;;;;;;;;;;;10.70;98.80;;;;;;5101734;28;20393;-74
2023/03/13 07:32:55;;;;;;;;;;;10.80;98.80;;;;;;5093325;27;19932;-73
2023/03/13 07:35:23;;;;;;;;;;;10.80;98.80;;;;;;5098233;28;20420;-74
2023/03/13 07:37:49;;;;;;;;;;;10.70;98.70;;;;;;5091984;28;20021;-73
2023/03/13 07:40:16;;;;;;;;;;;10.80;98.70;;;;;;5091825;28;19934;-75
2023/03/13 07:42:43;;;;;;;;;;;10.80;98.70;;;;;;5096010;28;19928;-74
2023/03/13 07:45:09;;;;;;;;;;;10.80;98.70;;;;;;5097664;27;19947;-74
2023/03/13 07:47:36;;;;;;;;;;;10.80;98.70;;;;;;5100162;27;19932;-74
2023/03/13 07:50:03;;;;;;;;;;;10.90;98.70;;;;;;5092183;28;20491;-74
2023/03/13 07:52:31;;;;;;;;;;;10.90;98.70;;;;;;5111958;27;19928;-75
2023/03/13 07:54:57;;;;;;;;;;;10.90;98.70;;;;;;5102053;28;19971;-74
2023/03/13 07:57:24;;;;;;;;;;;10.90;98.60;;;;;;5093834;28;19923;-74
2023/03/13 07:59:50;;;;;;;;;;;11.00;98.60;;;;;;5100335;28;19980;-75
2023/03/13 08:02:17;;;;;;;;;;;11.00;98.60;;;;;;5096326;28;20616;-74
2023/03/13 08:04:43;;;;;;;;;;;10.90;98.50;;;;;;5105261;28;19931;-74
2023/03/13 08:07:11;;;;;;;;;;;11.00;98.50;;;;;;5100358;28;20610;-73
2023/03/13 08:09:40;;;;;;;;;;;11.00;98.50;;;;;;5101949;28;19924;-73
2023/03/13 08:12:07;;;;;;;;;;;11.00;98.50;;;;;;5095361;28;19931;-73
2023/03/13 08:14:33;;;;;;;;;;;11.10;98.50;;;;;;5099813;28;19988;-73
2023/03/13 08:17:00;;;;;;;;;;;11.00;98.40;;;;;;5098049;28;19928;-73
2023/03/13 08:19:26;;;;;;;;;;;11.10;98.30;;;;;;5099060;28;19955;-74
2023/03/13 08:21:53;;;;;;;;;;;11.10;98.30;;;;;;5100217;28;20663;-74
2023/03/13 08:24:19;;;;;;;;;;;11.10;98.30;;;;;;5099103;27;19932;-73
2023/03/13 08:26:47;;;;;;;;;;;11.10;98.30;;;;;;5101603;28;19934;-73
2023/03/13 08:29:14;;;;;;;;;;;11.20;98.40;;;;;;5100122;28;19953;-72
2023/03/13 08:31:43;;;;;;;;;;;11.20;98.30;;;;;;5094224;27;19937;-73
2023/03/13 08:34:10;;;;;;;;;;;11.20;98.30;;;;;;5100588;28;19939;-71
2023/03/13 08:36:37;;;;;;;;;;;11.20;98.20;;;;;;5097702;27;19939;-73
2023/03/13 08:39:05;;;;;;;;;;;11.20;98.20;;;;;;5104873;27;19980;-74
2023/03/13 08:41:33;;;;;;;;;;;11.20;98.10;;;;;;5094909;28;19973;-76
2023/03/13 08:44:02;;;;;;;;;;;11.20;98.00;;;;;;5099137;28;19936;-74
2023/03/13 08:46:29;;;;;;;;;;;11.30;98.00;;;;;;5103920;28;19928;-72
2023/03/13 08:48:56;;;;;;;;;;;11.30;98.00;;;;;;5097785;28;19980;-72
2023/03/13 08:51:23;;;;;;;;;;;11.30;98.00;;;;;;5101141;28;20404;-72
2023/03/13 08:53:49;;;;;;;;;;;11.30;98.30;;;;;;5098473;28;19936;-72
2023/03/13 08:56:17;;;;;;;;;;;11.30;98.00;;;;;;5089964;28;19936;-72
2023/03/13 08:58:44;;;;;;;;;;;11.30;97.90;;;;;;5095137;28;19936;-73
2023/03/13 09:01:12;;;;;;;;;;;11.40;97.90;;;;;;5092009;28;20306;-74
2023/03/13 09:03:39;;;;;;;;;;;11.40;97.80;;;;;;5100802;28;19928;-73
2023/03/13 09:06:06;;;;;;;;;;;11.40;97.80;;;;;;5103538;28;19928;-74
2023/03/13 09:08:33;;;;;;;;;;;11.40;97.80;;;;;;5100048;28;19935;-72
2023/03/13 09:11:01;;;;;;;;;;;11.40;97.80;;;;;;5097270;28;19954;-74
2023/03/13 09:13:28;;;;;;;;;;;11.40;97.70;;;;;;5098601;28;19928;-75
2023/03/13 09:15:55;;;;;;;;;;;11.40;97.70;;;;;;5099409;28;19928;-72
2023/03/13 09:18:23;;;;;;;;;;;11.40;97.60;;;;;;5099051;28;19959;-73
2023/03/13 09:20:50;;;;;;;;;;;11.40;97.60;;;;;;5099542;28;19997;-71
2023/03/13 09:23:16;;;;;;;;;;;11.40;97.50;;;;;;5101504;28;19927;-71
2023/03/13 09:25:43;;;;;;;;;;;11.50;97.60;;;;;;5100779;28;20005;-72
2023/03/13 09:28:10;;;;;;;;;;;11.50;97.60;;;;;;5097568;28;20706;-73
2023/03/13 09:30:36;;;;;;;;;;;11.50;97.50;;;;;;5089144;28;19935;-74
2023/03/13 09:33:03;;;;;;;;;;;11.60;97.40;;;;;;5098129;28;20433;-73
2023/03/13 09:35:31;;;;;;;;;;;11.60;97.30;;;;;;5091834;28;19935;-72
2023/03/13 09:37:57;;;;;;;;;;;11.70;97.20;;;;;;5098045;28;19936;-71
2023/03/13 09:40:25;;;;;;;;;;;11.80;97.00;;;;;;5096675;28;20647;-72
2023/03/13 09:42:54;;;;;;;;;;;11.90;96.90;;;;;;5098276;28;19928;-71
2023/03/13 09:45:26;;;;;;;;;;;11.90;96.70;;;;;;5096600;28;19928;-75
2023/03/13 09:47:55;;;;;;;;;;;11.90;96.60;;;;;;5100593;28;19980;-70
2023/03/13 09:50:25;;;;;;;;;;;12.00;96.50;;;;;;5103510;28;19924;-70
2023/03/13 09:52:55;;;;;;;;;;;12.00;96.40;;;;;;5104353;28;20460;-72
2023/03/13 09:55:23;;;;;;;;;;;12.00;96.30;;;;;;5100272;28;19936;-71
2023/03/13 09:57:52;;;;;;;;;;;12.00;96.20;;;;;;5096731;28;19927;-72
2023/03/13 10:00:21;;;;;;;;;;;12.10;96.20;;;;;;5097206;28;19931;-72
2023/03/13 10:02:55;;;;;;;;;;;12.10;96.20;;;;;;5090036;28;20355;-71
2023/03/13 10:05:22;;;;;;;;;;;12.10;96.10;;;;;;5096279;28;19934;-69
2023/03/13 10:07:49;;;;;;;;;;;12.10;96.00;;;;;;5101600;28;20351;-71
2023/03/13 10:10:18;;;;;;;;;;;12.10;96.00;;;;;;5102180;28;19932;-71
2023/03/13 10:12:46;;;;;;;;;;;12.10;96.00;;;;;;5103016;28;19928;-72
2023/03/13 10:15:21;;;;;;;;;;;12.10;96.00;;;;;;5096531;28;19928;-74
2023/03/13 10:17:48;;;;;;;;;;;12.10;96.00;;;;;;5093693;27;19928;-71
2023/03/13 10:20:20;;;;;;;;;;;12.20;96.00;;;;;;5100064;28;20333;-73
2023/03/13 10:22:48;;;;;;;;;;;12.20;95.90;;;;;;5103713;27;19981;-73
2023/03/13 10:25:21;;;;;;;;;;;12.10;95.90;;;;;;5106030;27;20365;-73
2023/03/13 10:27:48;;;;;;;;;;;12.10;95.80;;;;;;5099954;27;19928;-72
2023/03/13 10:30:21;;;;;;;;;;;12.20;95.80;;;;;;5098212;27;19927;-71
2023/03/13 10:32:48;;;;;;;;;;;12.20;95.90;;;;;;5093093;28;20087;-71
2023/03/13 10:35:20;;;;;;;;;;;12.20;95.80;;;;;;5100229;28;19967;-72
2023/03/13 10:37:47;;;;;;;;;;;12.20;95.80;;;;;;5105419;27;20004;-74
2023/03/13 10:40:21;;;;;;;;;;;12.30;95.80;;;;;;5100110;28;19951;-71
2023/03/13 10:42:50;;;;;;;;;;;12.20;95.80;;;;;;5102452;27;19934;-71
2023/03/13 10:45:17;;;;;;;;;;;12.30;95.70;;;;;;5100074;27;20341;-72
2023/03/13 10:47:44;;;;;;;;;;;12.30;95.70;;;;;;5099914;28;20462;-72
2023/03/13 10:50:17;;;;;;;;;;;12.30;95.70;;;;;;5101982;28;19928;-74
2023/03/13 10:52:44;;;;;;;;;;;12.30;95.70;;;;;;5096400;28;20477;-71
2023/03/13 10:55:12;;;;;;;;;;;12.40;95.60;;;;;;5102885;28;20034;-74
2023/03/13 10:57:38;;;;;;;;;;;12.40;95.60;;;;;;5101188;27;19928;-70
2023/03/13 11:00:28;;;;;;;;;;;12.40;95.60;;;;;;5094789;28;19935;-74
2023/03/13 11:02:56;;;;;;;;;;;12.40;95.50;;;;;;5094366;28;19936;-73
2023/03/13 11:05:30;;;;;;;;;;;12.50;95.50;;;;;;5104821;27;19931;-71
2023/03/13 11:07:57;;;;;;;;;;;12.50;95.50;;;;;;5099510;28;20460;-74
2023/03/13 11:10:24;;;;;;;;;;;12.50;95.50;;;;;;5100359;27;19928;-73
2023/03/13 11:12:52;;;;;;;;;;;12.60;95.50;;;;;;5106332;28;19934;-72
2023/03/13 11:15:21;;;;;;;;;;;12.60;95.40;;;;;;5096809;27;19935;-71
2023/03/13 11:17:52;;;;;;;;;;;12.60;95.30;;;;;;5094831;27;20358;-73
2023/03/13 11:20:25;;;;;;;;;;;12.70;95.20;;;;;;5095767;27;19973;-70
2023/03/13 11:23:08;;;;;;;;;;;12.80;95.10;;;;;;5102518;27;19931;-70
2023/03/13 11:25:37;;;;;;;;;;;12.90;94.90;;;;;;5102095;27;19928;-72
2023/03/13 11:28:19;;;;;;;;;;;13.00;94.70;;;;;;5093086;28;19932;-73
2023/03/13 11:30:56;;;;;;;;;;;13.10;94.50;;;;;;5091944;28;20168;-73
2023/03/13 11:33:27;;;;;;;;;;;13.30;94.20;;;;;;5093804;28;19928;-74
2023/03/13 11:35:59;;;;;;;;;;;13.30;94.00;;;;;;5096189;27;19932;-70
2023/03/13 11:38:27;;;;;;;;;;;13.40;93.90;;;;;;5097849;28;20434;-73
2023/03/13 11:40:59;;;;;;;;;;;13.50;93.60;;;;;;5090430;28;19936;-70
2023/03/13 11:43:41;;;;;;;;;;;13.60;93.40;;;;;;5103490;27;19927;-73
2023/03/13 11:46:22;;;;;;;;;;;13.70;93.20;;;;;;5089088;28;19928;-74
2023/03/13 11:48:59;;;;;;;;;;;13.70;93.10;;;;;;5085393;28;19928;-72
2023/03/13 11:51:33;;;;;;;;;;;13.70;93.00;;;;;;5087798;28;19954;-70
2023/03/13 11:54:11;;;;;;;;;;;13.70;92.90;;;;;;5093766;28;19936;-74
2023/03/13 11:56:40;;;;;;;;;;;13.70;92.90;;;;;;5102050;28;20381;-72
2023/03/13 11:59:17;;;;;;;;;;;13.70;92.90;;;;;;5098248;28;19943;-73
2023/03/13 12:01:48;;;;;;;;;;;13.70;92.90;;;;;;5100643;27;19932;-74
2023/03/13 12:04:17;;;;;;;;;;;13.70;93.00;;;;;;5096259;28;20290;-71
2023/03/13 12:06:49;;;;;;;;;;;13.70;93.00;;;;;;5099792;28;19927;-72
2023/03/13 12:09:20;;;;;;;;;;;13.70;93.00;;;;;;5101178;27;19935;-71
2023/03/13 12:11:49;;;;;;;;;;;13.70;93.10;;;;;;5100455;28;19927;-73
2023/03/13 12:14:18;;;;;;;;;;;13.70;93.10;;;;;;5094661;28;19988;-72
2023/03/13 12:16:48;;;;;;;;;;;13.70;93.00;;;;;;5097919;28;19944;-72
2023/03/13 12:19:16;;;;;;;;;;;13.70;93.00;;;;;;5096718;28;19978;-70
2023/03/13 12:21:46;;;;;;;;;;;13.80;93.00;;;;;;5101255;28;19935;-74
2023/03/13 12:24:19;;;;;;;;;;;13.70;93.00;;;;;;5102076;27;19927;-73
2023/03/13 12:26:47;;;;;;;;;;;13.80;93.00;;;;;;5098903;28;19935;-74
2023/03/13 12:29:16;;;;;;;;;;;13.80;93.00;;;;;;5094071;28;19979;-72
2023/03/13 12:31:47;;;;;;;;;;;13.80;92.90;;;;;;5101223;28;19928;-73
2023/03/13 12:34:16;;;;;;;;;;;13.80;92.80;;;;;;5099625;28;19934;-73
2023/03/13 12:36:46;;;;;;;;;;;13.80;92.70;;;;;;5102279;28;20389;-74
2023/03/13 12:39:20;;;;;;;;;;;13.90;92.60;;;;;;5102227;27;19924;-74
2023/03/13 12:41:49;;;;;;;;;;;13.90;92.60;;;;;;5099744;27;19928;-74
2023/03/13 12:44:18;;;;;;;;;;;14.00;92.40;;;;;;5105001;27;20008;-72
2023/03/13 12:46:46;;;;;;;;;;;14.00;92.50;;;;;;5098658;28;19932;-72
2023/03/13 12:49:22;;;;;;;;;;;14.00;92.40;;;;;;5095873;28;19935;-74
2023/03/13 12:51:57;;;;;;;;;;;14.10;92.30;;;;;;5091720;28;20015;-71
2023/03/13 12:54:41;;;;;;;;;;;14.10;92.20;;;;;;5092377;28;19928;-71
2023/03/13 12:57:15;;;;;;;;;;;14.10;92.10;;;;;;5095627;28;19980;-71
2023/03/13 12:59:43;;;;;;;;;;;14.20;92.10;;;;;;5086501;28;20402;-74
2023/03/13 13:02:14;;;;;;;;;;;14.30;92.00;;;;;;5094896;28;20617;-75
2023/03/13 13:04:42;;;;;;;;;;;14.30;92.00;;;;;;5102467;28;19932;-73
2023/03/13 13:07:21;;;;;;;;;;;14.30;92.00;;;;;;5099856;28;19931;-72
2023/03/13 13:10:00;;;;;;;;;;;14.40;91.90;;;;;;5101557;28;19981;-73
2023/03/13 13:12:26;;;;;;;;;;;14.40;91.60;;;;;;5097972;28;19931;-74
2023/03/13 13:14:58;;;;;;;;;;;14.50;91.60;;;;;;5097467;28;19927;-72
2023/03/13 13:17:28;;;;;;;;;;;14.50;91.50;;;;;;5097900;28;19931;-72
2023/03/13 13:19:55;;;;;;;;;;;14.50;91.30;;;;;;5094359;28;19936;-70
2023/03/13 13:22:40;;;;;;;;;;;14.60;91.30;;;;;;5096470;28;20313;-72
2023/03/13 13:25:22;;;;;;;;;;;14.60;91.00;;;;;;5097695;28;19989;-74
2023/03/13 13:27:50;;;;;;;;;;;14.70;90.90;;;;;;5102763;28;19928;-72
2023/03/13 13:30:30;;;;;;;;;;;14.70;91.00;;;;;;5095095;28;19928;-70
2023/03/13 13:33:17;;;;;;;;;;;14.70;90.80;;;;;;5099125;28;19924;-72
2023/03/13 13:35:44;;;;;;;;;;;14.80;90.80;;;;;;5094949;28;20019;-71
2023/03/13 13:38:26;;;;;;;;;;;14.90;90.80;;;;;;5094757;27;19928;-71
2023/03/13 13:41:00;;;;;;;;;;;14.90;90.50;;;;;;5091932;28;20439;-74
2023/03/13 13:43:30;;;;;;;;;;;15.00;90.30;;;;;;5102299;27;19943;-71
2023/03/13 13:45:59;;;;;;;;;;;15.10;90.20;;;;;;5104304;27;19980;-71
2023/03/13 13:48:29;;;;;;;;;;;15.30;90.00;;;;;;5099152;28;20491;-71
2023/03/13 13:51:14;;;;;;;;;;;15.40;89.40;;;;;;5099105;28;19943;-74
2023/03/13 13:53:42;;;;;;;;;;;15.50;89.90;;;;;;5101874;28;19924;-74
2023/03/13 13:56:24;;;;;;;;;;;15.60;88.40;;;;;;5102672;27;19931;-72
2023/03/13 13:58:55;;;;;;;;;;;15.70;88.10;;;;;;5096193;28;20344;-72
2023/03/13 14:01:22;;;;;;;;;;;15.80;87.50;;;;;;5105212;28;19928;-74
2023/03/13 14:03:50;;;;;;;;;;;16.00;87.20;;;;;;5100242;28;19931;-71
2023/03/13 14:06:19;;;;;;;;;;;16.00;86.60;;;;;;5104770;28;20632;-71
2023/03/13 14:08:48;;;;;;;;;;;16.10;86.10;;;;;;5097378;27;19936;-71
2023/03/13 14:11:22;;;;;;;;;;;16.20;85.50;;;;;;5100977;28;19936;-71
2023/03/13 14:14:04;;;;;;;;;;;16.30;85.60;;;;;;5099687;28;19935;-73
2023/03/13 14:16:32;;;;;;;;;;;16.40;85.00;;;;;;5095723;27;20496;-73
2023/03/13 14:18:59;;;;;;;;;;;16.40;84.60;;;;;;5100942;27;19936;-76
2023/03/13 14:21:26;;;;;;;;;;;16.40;84.80;;;;;;5097066;28;19928;-74
2023/03/13 14:23:53;;;;;;;;;;;16.50;83.90;;;;;;5099036;28;19928;-72
2023/03/13 14:26:20;;;;;;;;;;;16.50;84.00;;;;;;5105440;28;20637;-73
2023/03/13 14:28:47;;;;;;;;;;;16.50;83.90;;;;;;5101689;28;19931;-73